High Forest, Minnesota
Current Conditions -  °F | °C
As of 7:54 AM on Monday 20 Oct 2014 (Local Time) from KRST Reporting Station
Clear Clear  
Wind Chill: 38°   Ceiling: Unl
Heat Index: 42°   Visibility: 10mi
Dew Point: 39°   Wind: 7mph
Humidity: 89%   Direction: 270°W
Pressure: 29.97"   Gusts: NA
Location:  43.8884°N, 92.383°W
Report Text: KRST 201254Z 27006KT 10SM CLR 06/04 A2997 RMK AO2 SLP153 T00560039
Loading
Personal Weather Stations






























Interactive Weather Map
Tropical Storm Tracking
New forecast layout! Learn more

10-Day Weather Forecast

Advertisements
Track Severe Weather on mobile